sensor_id;sensor_type;location;lat;lon;timestamp;pressure;altitude;pressure_sealevel;temperature;humidity
82951;BME280;72737;53.332;6.514;2023-11-21T00:00:44;100843.50;;;16.65;68.54
82951;BME280;72737;53.332;6.514;2023-11-21T00:03:11;100845.66;;;16.68;68.48
82951;BME280;72737;53.332;6.514;2023-11-21T00:05:41;100847.56;;;16.67;68.16
82951;BME280;72737;53.332;6.514;2023-11-21T00:08:09;100848.22;;;16.64;68.55
82951;BME280;72737;53.332;6.514;2023-11-21T00:10:34;100847.56;;;16.67;68.35
82951;BME280;72737;53.332;6.514;2023-11-21T00:13:00;100851.56;;;16.61;68.24
82951;BME280;72737;53.332;6.514;2023-11-21T00:15:27;100848.81;;;16.61;68.52
82951;BME280;72737;53.332;6.514;2023-11-21T00:17:53;100842.28;;;16.57;68.63
82951;BME280;72737;53.332;6.514;2023-11-21T00:20:18;100837.22;;;16.51;68.36
82951;BME280;72737;53.332;6.514;2023-11-21T00:22:44;100838.75;;;16.57;68.37
82951;BME280;72737;53.332;6.514;2023-11-21T00:25:10;100848.59;;;16.58;68.36
82951;BME280;72737;53.332;6.514;2023-11-21T00:27:36;100855.19;;;16.57;68.61
82951;BME280;72737;53.332;6.514;2023-11-21T00:30:02;100853.91;;;16.54;68.45
82951;BME280;72737;53.332;6.514;2023-11-21T00:32:29;100852.56;;;16.52;68.48
82951;BME280;72737;53.332;6.514;2023-11-21T00:34:55;100852.88;;;16.50;68.89
82951;BME280;72737;53.332;6.514;2023-11-21T00:37:20;100849.31;;;16.50;69.00
82951;BME280;72737;53.332;6.514;2023-11-21T00:39:45;100857.53;;;16.50;68.61
82951;BME280;72737;53.332;6.514;2023-11-21T00:42:11;100861.44;;;16.49;69.03
82951;BME280;72737;53.332;6.514;2023-11-21T00:44:38;100860.41;;;16.45;69.31
82951;BME280;72737;53.332;6.514;2023-11-21T00:47:04;100869.16;;;16.47;68.74
82951;BME280;72737;53.332;6.514;2023-11-21T00:49:29;100865.78;;;16.50;69.25
82951;BME280;72737;53.332;6.514;2023-11-21T00:51:55;100868.53;;;16.50;69.10
82951;BME280;72737;53.332;6.514;2023-11-21T00:54:23;100869.78;;;16.44;69.23
82951;BME280;72737;53.332;6.514;2023-11-21T00:56:48;100874.25;;;16.40;69.01
82951;BME280;72737;53.332;6.514;2023-11-21T00:59:13;100878.41;;;16.37;69.45
82951;BME280;72737;53.332;6.514;2023-11-21T01:01:39;100879.22;;;16.38;69.25
82951;BME280;72737;53.332;6.514;2023-11-21T01:04:05;100880.34;;;16.37;69.19
82951;BME280;72737;53.332;6.514;2023-11-21T01:06:32;100885.00;;;16.36;69.05
82951;BME280;72737;53.332;6.514;2023-11-21T01:08:58;100888.56;;;16.37;69.25
82951;BME280;72737;53.332;6.514;2023-11-21T01:11:23;100901.28;;;16.33;69.20
82951;BME280;72737;53.332;6.514;2023-11-21T01:13:48;100899.66;;;16.31;69.69
82951;BME280;72737;53.332;6.514;2023-11-21T01:16:14;100900.97;;;16.34;69.65
82951;BME280;72737;53.332;6.514;2023-11-21T01:18:39;100903.72;;;16.34;69.46
82951;BME280;72737;53.332;6.514;2023-11-21T01:21:05;100913.88;;;16.34;69.44
82951;BME280;72737;53.332;6.514;2023-11-21T01:23:30;100918.34;;;16.29;69.54
82951;BME280;72737;53.332;6.514;2023-11-21T01:25:57;100919.47;;;16.28;69.41
82951;BME280;72737;53.332;6.514;2023-11-21T01:28:22;100928.50;;;16.29;69.42
82951;BME280;72737;53.332;6.514;2023-11-21T01:30:49;100938.66;;;16.28;69.61
82951;BME280;72737;53.332;6.514;2023-11-21T01:33:14;100943.03;;;16.29;69.58
82951;BME280;72737;53.332;6.514;2023-11-21T01:35:41;100941.91;;;16.30;69.70
82951;BME280;72737;53.332;6.514;2023-11-21T01:38:07;100950.13;;;16.30;69.31
82951;BME280;72737;53.332;6.514;2023-11-21T01:40:34;100948.81;;;16.28;69.59
82951;BME280;72737;53.332;6.514;2023-11-21T01:43:00;100963.34;;;16.28;69.63
82951;BME280;72737;53.332;6.514;2023-11-21T01:45:27;100961.19;;;16.25;70.13
82951;BME280;72737;53.332;6.514;2023-11-21T01:47:54;100961.19;;;16.25;69.71
82951;BME280;72737;53.332;6.514;2023-11-21T01:50:20;100965.38;;;16.23;70.17
82951;BME280;72737;53.332;6.514;2023-11-21T01:52:48;100969.13;;;16.27;70.00
82951;BME280;72737;53.332;6.514;2023-11-21T01:55:15;100962.00;;;16.26;70.08
82951;BME280;72737;53.332;6.514;2023-11-21T01:57:43;100971.97;;;16.22;70.13
82951;BME280;72737;53.332;6.514;2023-11-21T02:00:09;100972.78;;;16.22;69.78
82951;BME280;72737;53.332;6.514;2023-11-21T02:02:49;100978.28;;;16.22;70.03
82951;BME280;72737;53.332;6.514;2023-11-21T02:05:16;100980.50;;;16.20;69.53
82951;BME280;72737;53.332;6.514;2023-11-21T02:07:45;100988.41;;;16.22;69.81
82951;BME280;72737;53.332;6.514;2023-11-21T02:10:14;100989.84;;;16.19;69.98
82951;BME280;72737;53.332;6.514;2023-11-21T02:12:41;100996.66;;;16.22;69.79
82951;BME280;72737;53.332;6.514;2023-11-21T02:15:08;101004.88;;;16.22;69.64
82951;BME280;72737;53.332;6.514;2023-11-21T02:17:42;101009.06;;;16.19;69.91
82951;BME280;72737;53.332;6.514;2023-11-21T02:20:12;101007.41;;;16.18;70.16
82951;BME280;72737;53.332;6.514;2023-11-21T02:22:41;101021.13;;;16.18;69.60
82951;BME280;72737;53.332;6.514;2023-11-21T02:25:08;101016.66;;;16.22;69.62
82951;BME280;72737;53.332;6.514;2023-11-21T02:27:34;101037.97;;;16.25;70.02
82951;BME280;72737;53.332;6.514;2023-11-21T02:30:00;101037.59;;;16.32;69.67
82951;BME280;72737;53.332;6.514;2023-11-21T02:32:26;101036.28;;;16.29;69.89
82951;BME280;72737;53.332;6.514;2023-11-21T02:34:52;101037.38;;;16.28;69.67
82951;BME280;72737;53.332;6.514;2023-11-21T02:37:21;101036.38;;;16.24;70.02
82951;BME280;72737;53.332;6.514;2023-11-21T02:39:46;101036.56;;;16.28;69.70
82951;BME280;72737;53.332;6.514;2023-11-21T02:42:12;101030.28;;;16.27;69.71
82951;BME280;72737;53.332;6.514;2023-11-21T02:44:37;101042.25;;;16.31;70.08
82951;BME280;72737;53.332;6.514;2023-11-21T02:47:03;101043.06;;;16.32;69.66
82951;BME280;72737;53.332;6.514;2023-11-21T02:49:29;101045.28;;;16.30;69.79
82951;BME280;72737;53.332;6.514;2023-11-21T02:51:54;101047.25;;;16.29;70.35
82951;BME280;72737;53.332;6.514;2023-11-21T02:54:20;101047.75;;;16.31;70.06
82951;BME280;72737;53.332;6.514;2023-11-21T02:56:47;101056.78;;;16.32;69.91
82951;BME280;72737;53.332;6.514;2023-11-21T02:59:13;101050.78;;;16.30;70.10
82951;BME280;72737;53.332;6.514;2023-11-21T03:01:38;101065.53;;;16.34;70.11
82951;BME280;72737;53.332;6.514;2023-11-21T03:04:04;101060.88;;;16.35;70.23
82951;BME280;72737;53.332;6.514;2023-11-21T03:06:29;101064.09;;;16.37;70.20
82951;BME280;72737;53.332;6.514;2023-11-21T03:08:55;101060.53;;;16.36;69.95
82951;BME280;72737;53.332;6.514;2023-11-21T03:11:20;101063.63;;;16.35;70.04
82951;BME280;72737;53.332;6.514;2023-11-21T03:13:46;101066.94;;;16.31;70.00
82951;BME280;72737;53.332;6.514;2023-11-21T03:16:12;101067.94;;;16.36;70.11
82951;BME280;72737;53.332;6.514;2023-11-21T03:18:38;101071.31;;;16.33;70.00
82951;BME280;72737;53.332;6.514;2023-11-21T03:21:05;101061.66;;;16.35;69.88
82951;BME280;72737;53.332;6.514;2023-11-21T03:23:31;101071.31;;;16.33;70.29
82951;BME280;72737;53.332;6.514;2023-11-21T03:25:57;101068.88;;;16.31;70.30
82951;BME280;72737;53.332;6.514;2023-11-21T03:28:25;101075.16;;;16.31;70.33
82951;BME280;72737;53.332;6.514;2023-11-21T03:30:50;101076.19;;;16.36;70.15
82951;BME280;72737;53.332;6.514;2023-11-21T03:33:15;101077.31;;;16.35;70.35
82951;BME280;72737;53.332;6.514;2023-11-21T03:35:41;101087.78;;;16.33;70.33
82951;BME280;72737;53.332;6.514;2023-11-21T03:38:07;101093.78;;;16.35;70.30
82951;BME280;72737;53.332;6.514;2023-11-21T03:40:34;101093.16;;;16.38;69.84
82951;BME280;72737;53.332;6.514;2023-11-21T03:43:00;101093.56;;;16.31;70.09
82951;BME280;72737;53.332;6.514;2023-11-21T03:45:26;101096.91;;;16.28;70.30
82951;BME280;72737;53.332;6.514;2023-11-21T03:47:51;101103.78;;;16.25;70.61
82951;BME280;72737;53.332;6.514;2023-11-21T03:50:17;101101.38;;;16.24;70.72
82951;BME280;72737;53.332;6.514;2023-11-21T03:52:42;101107.88;;;16.28;70.19
82951;BME280;72737;53.332;6.514;2023-11-21T03:55:09;101109.28;;;16.25;70.41
82951;BME280;72737;53.332;6.514;2023-11-21T03:57:35;101116.41;;;16.26;70.49
82951;BME280;72737;53.332;6.514;2023-11-21T04:00:01;101117.00;;;16.23;70.30
82951;BME280;72737;53.332;6.514;2023-11-21T04:02:29;101127.44;;;16.21;70.35
82951;BME280;72737;53.332;6.514;2023-11-21T04:04:57;101129.63;;;16.24;70.46
82951;BME280;72737;53.332;6.514;2023-11-21T04:07:22;101140.06;;;16.22;70.30
82951;BME280;72737;53.332;6.514;2023-11-21T04:09:48;101140.66;;;16.19;70.68
82951;BME280;72737;53.332;6.514;2023-11-21T04:12:13;101149.09;;;16.23;70.29
82951;BME280;72737;53.332;6.514;2023-11-21T04:14:38;101150.22;;;16.22;70.48
82951;BME280;72737;53.332;6.514;2023-11-21T04:17:04;101154.97;;;16.16;70.58
82951;BME280;72737;53.332;6.514;2023-11-21T04:19:29;101157.19;;;16.14;70.59
82951;BME280;72737;53.332;6.514;2023-11-21T04:21:55;101168.75;;;16.11;70.35
82951;BME280;72737;53.332;6.514;2023-11-21T04:24:20;101174.75;;;16.13;70.61
82951;BME280;72737;53.332;6.514;2023-11-21T04:26:46;101175.25;;;16.15;70.49
82951;BME280;72737;53.332;6.514;2023-11-21T04:29:12;101184.38;;;16.11;70.11
82951;BME280;72737;53.332;6.514;2023-11-21T04:31:37;101180.63;;;16.07;70.36
82951;BME280;72737;53.332;6.514;2023-11-21T04:34:03;101190.19;;;16.09;70.44
82951;BME280;72737;53.332;6.514;2023-11-21T04:36:29;101205.50;;;16.10;70.56
82951;BME280;72737;53.332;6.514;2023-11-21T04:38:56;101205.00;;;16.08;70.10
82951;BME280;72737;53.332;6.514;2023-11-21T04:41:21;101210.47;;;16.08;70.22
82951;BME280;72737;53.332;6.514;2023-11-21T04:43:46;101217.19;;;16.16;70.08
82951;BME280;72737;53.332;6.514;2023-11-21T04:46:12;101218.56;;;16.18;70.35
82951;BME280;72737;53.332;6.514;2023-11-21T04:48:38;101225.13;;;16.17;69.91
82951;BME280;72737;53.332;6.514;2023-11-21T04:51:03;101228.09;;;16.21;70.03
82951;BME280;72737;53.332;6.514;2023-11-21T04:53:30;101229.81;;;16.17;70.42
82951;BME280;72737;53.332;6.514;2023-11-21T04:55:55;101231.94;;;16.20;70.29
82951;BME280;72737;53.332;6.514;2023-11-21T04:58:20;101239.38;;;16.19;70.26
82951;BME280;72737;53.332;6.514;2023-11-21T05:00:46;101238.84;;;16.17;70.30
82951;BME280;72737;53.332;6.514;2023-11-21T05:03:11;101252.56;;;16.17;69.88
82951;BME280;72737;53.332;6.514;2023-11-21T05:05:37;101254.84;;;16.10;70.34
82951;BME280;72737;53.332;6.514;2023-11-21T05:08:02;101265.00;;;16.10;70.43
82951;BME280;72737;53.332;6.514;2023-11-21T05:10:28;101273.75;;;16.12;70.48
82951;BME280;72737;53.332;6.514;2023-11-21T05:12:54;101278.63;;;16.15;70.09
82951;BME280;72737;53.332;6.514;2023-11-21T05:15:20;101278.41;;;16.11;70.34
82951;BME280;72737;53.332;6.514;2023-11-21T05:17:46;101280.28;;;16.16;70.23
82951;BME280;72737;53.332;6.514;2023-11-21T05:20:14;101289.38;;;16.11;70.10
82951;BME280;72737;53.332;6.514;2023-11-21T05:22:40;101297.91;;;16.10;70.64
82951;BME280;72737;53.332;6.514;2023-11-21T05:25:07;101307.25;;;16.09;70.51
82951;BME280;72737;53.332;6.514;2023-11-21T05:27:34;101308.38;;;16.08;70.44
82951;BME280;72737;53.332;6.514;2023-11-21T05:30:02;101314.34;;;16.10;70.28
82951;BME280;72737;53.332;6.514;2023-11-21T05:32:30;101308.88;;;16.10;70.11
82951;BME280;72737;53.332;6.514;2023-11-21T05:34:56;101327.41;;;16.18;69.83
82951;BME280;72737;53.332;6.514;2023-11-21T05:37:21;101326.06;;;16.15;69.88
82951;BME280;72737;53.332;6.514;2023-11-21T05:39:48;101335.34;;;16.19;70.27
82951;BME280;72737;53.332;6.514;2023-11-21T05:42:14;101342.38;;;16.25;70.01
82951;BME280;72737;53.332;6.514;2023-11-21T05:44:41;101339.28;;;16.32;69.85
82951;BME280;72737;53.332;6.514;2023-11-21T05:47:08;101345.19;;;16.20;70.10
82951;BME280;72737;53.332;6.514;2023-11-21T05:49:33;101347.50;;;16.13;70.32
82951;BME280;72737;53.332;6.514;2023-11-21T05:52:00;101346.69;;;16.13;70.35
82951;BME280;72737;53.332;6.514;2023-11-21T05:54:26;101353.81;;;16.14;70.23
82951;BME280;72737;53.332;6.514;2023-11-21T05:56:51;101362.66;;;16.06;70.48
82951;BME280;72737;53.332;6.514;2023-11-21T05:59:17;101365.72;;;16.04;70.18
82951;BME280;72737;53.332;6.514;2023-11-21T06:01:42;101363.25;;;16.03;69.92
82951;BME280;72737;53.332;6.514;2023-11-21T06:04:07;101376.16;;;16.02;69.75
82951;BME280;72737;53.332;6.514;2023-11-21T06:06:35;101371.84;;;15.96;70.07
82951;BME280;72737;53.332;6.514;2023-11-21T06:09:00;101379.50;;;15.99;69.79
82951;BME280;72737;53.332;6.514;2023-11-21T06:11:26;101376.22;;;15.97;69.72
82951;BME280;72737;53.332;6.514;2023-11-21T06:13:51;101385.25;;;15.98;69.92
82951;BME280;72737;53.332;6.514;2023-11-21T06:16:18;101389.84;;;16.02;69.40
82951;BME280;72737;53.332;6.514;2023-11-21T06:18:45;101395.06;;;16.04;69.50
82951;BME280;72737;53.332;6.514;2023-11-21T06:21:11;101397.31;;;15.97;69.47
82951;BME280;72737;53.332;6.514;2023-11-21T06:23:36;101408.88;;;15.94;69.89
82951;BME280;72737;53.332;6.514;2023-11-21T06:26:02;101409.22;;;15.87;69.67
82951;BME280;72737;53.332;6.514;2023-11-21T06:28:29;101417.66;;;15.91;69.52
82951;BME280;72737;53.332;6.514;2023-11-21T06:30:56;101420.19;;;15.87;69.70
82951;BME280;72737;53.332;6.514;2023-11-21T06:33:22;101413.66;;;15.83;69.61
82951;BME280;72737;53.332;6.514;2023-11-21T06:35:47;101419.44;;;15.81;69.40
82951;BME280;72737;53.332;6.514;2023-11-21T06:38:13;101429.28;;;15.82;69.65
82951;BME280;72737;53.332;6.514;2023-11-21T06:40:38;101442.44;;;15.80;69.29
82951;BME280;72737;53.332;6.514;2023-11-21T06:43:04;101440.81;;;15.79;69.82
82951;BME280;72737;53.332;6.514;2023-11-21T06:45:32;101434.22;;;15.80;69.60
82951;BME280;72737;53.332;6.514;2023-11-21T06:47:57;101431.50;;;15.80;69.66
82951;BME280;72737;53.332;6.514;2023-11-21T06:50:22;101447.69;;;15.77;69.27
82951;BME280;72737;53.332;6.514;2023-11-21T06:52:48;101459.72;;;15.81;69.23
82951;BME280;72737;53.332;6.514;2023-11-21T06:55:13;101466.34;;;15.75;69.86
82951;BME280;72737;53.332;6.514;2023-11-21T06:57:39;101469.09;;;15.75;69.11
82951;BME280;72737;53.332;6.514;2023-11-21T07:00:05;101480.34;;;15.73;69.04
82951;BME280;72737;53.332;6.514;2023-11-21T07:02:31;101481.97;;;15.74;69.05
82951;BME280;72737;53.332;6.514;2023-11-21T07:04:57;101483.28;;;15.82;68.98
82951;BME280;72737;53.332;6.514;2023-11-21T07:07:22;101493.75;;;15.75;69.06
82951;BME280;72737;53.332;6.514;2023-11-21T07:09:47;101495.97;;;15.73;69.57
82951;BME280;72737;53.332;6.514;2023-11-21T07:12:14;101492.13;;;15.74;69.12
82951;BME280;72737;53.332;6.514;2023-11-21T07:14:39;101500.63;;;15.72;69.27
82951;BME280;72737;53.332;6.514;2023-11-21T07:17:06;101499.91;;;15.62;69.21
82951;BME280;72737;53.332;6.514;2023-11-21T07:19:31;101501.78;;;15.66;69.29
82951;BME280;72737;53.332;6.514;2023-11-21T07:21:57;101506.94;;;15.73;68.70
82951;BME280;72737;53.332;6.514;2023-11-21T07:24:22;101520.63;;;15.73;68.86
82951;BME280;72737;53.332;6.514;2023-11-21T07:26:48;101521.50;;;15.68;69.00
82951;BME280;72737;53.332;6.514;2023-11-21T07:29:14;101522.31;;;15.69;69.11
82951;BME280;72737;53.332;6.514;2023-11-21T07:31:39;101537.41;;;15.66;68.93
82951;BME280;72737;53.332;6.514;2023-11-21T07:34:07;101543.16;;;15.65;69.25
82951;BME280;72737;53.332;6.514;2023-11-21T07:36:33;101544.28;;;15.64;69.25
82951;BME280;72737;53.332;6.514;2023-11-21T07:38:59;101549.22;;;15.62;69.26
82951;BME280;72737;53.332;6.514;2023-11-21T07:41:25;101552.56;;;15.59;69.24
82951;BME280;72737;53.332;6.514;2023-11-21T07:43:50;101566.75;;;15.61;69.08
82951;BME280;72737;53.332;6.514;2023-11-21T07:46:16;101575.81;;;15.61;69.31
82951;BME280;72737;53.332;6.514;2023-11-21T07:48:42;101578.84;;;15.55;69.08
82951;BME280;72737;53.332;6.514;2023-11-21T07:51:09;101572.81;;;15.58;68.72
82951;BME280;72737;53.332;6.514;2023-11-21T07:53:35;101582.97;;;15.57;69.34
82951;BME280;72737;53.332;6.514;2023-11-21T07:56:04;101589.53;;;15.56;69.16
82951;BME280;72737;53.332;6.514;2023-11-21T07:58:30;101599.66;;;15.56;69.02
82951;BME280;72737;53.332;6.514;2023-11-21T08:00:56;101601.91;;;15.54;68.70
82951;BME280;72737;53.332;6.514;2023-11-21T08:03:21;101607.63;;;15.57;69.11
82951;BME280;72737;53.332;6.514;2023-11-21T08:05:47;101621.59;;;15.56;68.77
82951;BME280;72737;53.332;6.514;2023-11-21T08:08:13;101622.41;;;15.56;68.54
82951;BME280;72737;53.332;6.514;2023-11-21T08:10:38;101621.06;;;15.54;68.79
82951;BME280;72737;53.332;6.514;2023-11-21T08:13:05;101632.84;;;15.49;68.79
82951;BME280;72737;53.332;6.514;2023-11-21T08:15:31;101632.03;;;15.49;69.12
82951;BME280;72737;53.332;6.514;2023-11-21T08:17:58;101635.88;;;15.48;68.87
82951;BME280;72737;53.332;6.514;2023-11-21T08:20:24;101627.69;;;15.42;68.74
82951;BME280;72737;53.332;6.514;2023-11-21T08:22:50;101644.09;;;15.48;69.21
82951;BME280;72737;53.332;6.514;2023-11-21T08:25:17;101639.94;;;15.50;69.00
82951;BME280;72737;53.332;6.514;2023-11-21T08:27:45;101647.38;;;15.44;69.16
82951;BME280;72737;53.332;6.514;2023-11-21T08:30:11;101644.13;;;15.42;69.24
82951;BME280;72737;53.332;6.514;2023-11-21T08:32:37;101644.34;;;15.46;69.24
82951;BME280;72737;53.332;6.514;2023-11-21T08:35:05;101658.31;;;15.44;68.79
82951;BME280;72737;53.332;6.514;2023-11-21T08:37:31;101655.06;;;15.42;68.61
82951;BME280;72737;53.332;6.514;2023-11-21T08:39:58;101663.81;;;15.44;68.91
82951;BME280;72737;53.332;6.514;2023-11-21T08:42:27;101666.53;;;15.44;68.79
82951;BME280;72737;53.332;6.514;2023-11-21T08:44:56;101677.84;;;15.38;68.94
82951;BME280;72737;53.332;6.514;2023-11-21T08:47:23;101677.53;;;15.39;69.02
82951;BME280;72737;53.332;6.514;2023-11-21T08:49:50;101680.81;;;15.41;69.10
82951;BME280;72737;53.332;6.514;2023-11-21T08:52:21;101694.78;;;15.40;68.96
82951;BME280;72737;53.332;6.514;2023-11-21T08:54:49;101689.31;;;15.40;68.82
82951;BME280;72737;53.332;6.514;2023-11-21T08:57:22;101705.47;;;15.41;68.89
82951;BME280;72737;53.332;6.514;2023-11-21T08:59:47;101695.94;;;15.34;68.84
82951;BME280;72737;53.332;6.514;2023-11-21T09:02:12;101706.03;;;15.38;69.22
82951;BME280;72737;53.332;6.514;2023-11-21T09:04:38;101712.06;;;15.35;68.50
82951;BME280;72737;53.332;6.514;2023-11-21T09:07:03;101709.06;;;15.32;68.66
82951;BME280;72737;53.332;6.514;2023-11-21T09:09:29;101720.31;;;15.30;69.18
82951;BME280;72737;53.332;6.514;2023-11-21T09:11:55;101724.09;;;15.34;69.09
82951;BME280;72737;53.332;6.514;2023-11-21T09:14:20;101726.31;;;15.32;69.00
82951;BME280;72737;53.332;6.514;2023-11-21T09:16:46;101728.25;;;15.32;68.47
82951;BME280;72737;53.332;6.514;2023-11-21T09:19:12;101726.59;;;15.31;68.77
82951;BME280;72737;53.332;6.514;2023-11-21T09:21:39;101729.34;;;15.31;68.83
82951;BME280;72737;53.332;6.514;2023-11-21T09:24:05;101739.22;;;15.27;68.68
82951;BME280;72737;53.332;6.514;2023-11-21T09:26:30;101746.59;;;15.31;68.49
82951;BME280;72737;53.332;6.514;2023-11-21T09:28:56;101751.25;;;15.31;68.45
82951;BME280;72737;53.332;6.514;2023-11-21T09:31:22;101760.56;;;15.30;68.86
82951;BME280;72737;53.332;6.514;2023-11-21T09:33:49;101757.00;;;15.29;68.45
82951;BME280;72737;53.332;6.514;2023-11-21T09:36:14;101759.47;;;15.26;68.97
82951;BME280;72737;53.332;6.514;2023-11-21T09:38:41;101769.34;;;15.27;68.58
82951;BME280;72737;53.332;6.514;2023-11-21T09:41:13;101766.88;;;15.25;69.14
82951;BME280;72737;53.332;6.514;2023-11-21T09:43:44;101775.91;;;15.26;69.04
82951;BME280;72737;53.332;6.514;2023-11-21T09:46:12;101782.78;;;15.23;68.78
82951;BME280;72737;53.332;6.514;2023-11-21T09:48:42;101791.53;;;15.20;68.76
82951;BME280;72737;53.332;6.514;2023-11-21T09:51:10;101799.22;;;15.23;68.70
82951;BME280;72737;53.332;6.514;2023-11-21T09:53:36;101805.22;;;15.25;68.86
82951;BME280;72737;53.332;6.514;2023-11-21T09:56:03;101802.47;;;15.25;68.48
82951;BME280;72737;53.332;6.514;2023-11-21T09:58:29;101806.59;;;15.28;69.16
82951;BME280;72737;53.332;6.514;2023-11-21T10:00:57;101813.16;;;15.27;68.65
82951;BME280;72737;53.332;6.514;2023-11-21T10:03:26;101821.63;;;15.25;68.71
82951;BME280;72737;53.332;6.514;2023-11-21T10:05:53;101823.56;;;15.25;68.70
82951;BME280;72737;53.332;6.514;2023-11-21T10:08:22;101821.09;;;15.28;68.97
82951;BME280;72737;53.332;6.514;2023-11-21T10:10:51;101824.38;;;15.25;69.01
82951;BME280;72737;53.332;6.514;2023-11-21T10:13:18;101829.59;;;15.27;68.45
82951;BME280;72737;53.332;6.514;2023-11-21T10:15:49;101830.94;;;15.19;68.69
82951;BME280;72737;53.332;6.514;2023-11-21T10:18:15;101826.59;;;15.23;68.91
82951;BME280;72737;53.332;6.514;2023-11-21T10:20:41;101843.03;;;15.18;68.86
82951;BME280;72737;53.332;6.514;2023-11-21T10:23:08;101843.56;;;15.20;69.02
82951;BME280;72737;53.332;6.514;2023-11-21T10:25:36;101854.50;;;15.20;69.12
82951;BME280;72737;53.332;6.514;2023-11-21T10:28:03;101857.25;;;15.20;69.07
82951;BME280;72737;53.332;6.514;2023-11-21T10:30:36;101858.91;;;15.16;68.98
82951;BME280;72737;53.332;6.514;2023-11-21T10:33:03;101858.63;;;15.23;69.25
82951;BME280;72737;53.332;6.514;2023-11-21T10:35:42;101865.75;;;15.24;68.64
82951;BME280;72737;53.332;6.514;2023-11-21T10:38:07;101865.47;;;15.20;68.99
82951;BME280;72737;53.332;6.514;2023-11-21T10:40:38;101874.75;;;15.24;68.96
82951;BME280;72737;53.332;6.514;2023-11-21T10:43:08;101867.09;;;15.21;68.87
82951;BME280;72737;53.332;6.514;2023-11-21T10:45:38;101872.03;;;15.19;69.13
82951;BME280;72737;53.332;6.514;2023-11-21T10:48:07;101887.94;;;15.22;68.70
82951;BME280;72737;53.332;6.514;2023-11-21T10:50:36;101886.53;;;15.20;69.33
82951;BME280;72737;53.332;6.514;2023-11-21T10:53:05;101894.50;;;15.16;69.16
82951;BME280;72737;53.332;6.514;2023-11-21T10:55:32;101882.97;;;15.19;69.47
82951;BME280;72737;53.332;6.514;2023-11-21T10:58:01;101889.56;;;15.18;69.06
82951;BME280;72737;53.332;6.514;2023-11-21T11:00:28;101892.31;;;15.18;68.82
82951;BME280;72737;53.332;6.514;2023-11-21T11:02:55;101892.00;;;15.20;68.83
82951;BME280;72737;53.332;6.514;2023-11-21T11:05:24;101889.56;;;15.18;69.19
82951;BME280;72737;53.332;6.514;2023-11-21T11:07:58;101899.41;;;15.14;69.41
82951;BME280;72737;53.332;6.514;2023-11-21T11:10:27;101916.41;;;15.16;69.28
82951;BME280;72737;53.332;6.514;2023-11-21T11:12:55;101918.03;;;15.17;68.93
82951;BME280;72737;53.332;6.514;2023-11-21T11:15:21;101921.88;;;15.21;68.80
82951;BME280;72737;53.332;6.514;2023-11-21T11:17:48;101922.13;;;15.20;69.02
82951;BME280;72737;53.332;6.514;2023-11-21T11:20:14;101917.50;;;15.15;69.22
82951;BME280;72737;53.332;6.514;2023-11-21T11:28:27;101921.31;;;15.14;69.19
82951;BME280;72737;53.332;6.514;2023-11-21T11:31:07;101930.91;;;15.17;68.75
82951;BME280;72737;53.332;6.514;2023-11-21T11:33:43;101924.06;;;15.09;69.02
82951;BME280;72737;53.332;6.514;2023-11-21T11:38:38;101933.91;;;15.15;69.42
82951;BME280;72737;53.332;6.514;2023-11-21T11:41:05;101933.66;;;15.17;69.24
82951;BME280;72737;53.332;6.514;2023-11-21T11:43:31;101933.09;;;15.15;69.45
82951;BME280;72737;53.332;6.514;2023-11-21T11:46:10;101936.66;;;15.15;69.13
82951;BME280;72737;53.332;6.514;2023-11-21T11:48:39;101946.50;;;15.16;69.34
82951;BME280;72737;53.332;6.514;2023-11-21T11:51:11;101941.88;;;15.17;69.07
82951;BME280;72737;53.332;6.514;2023-11-21T11:53:41;101948.44;;;15.21;68.99
82951;BME280;72737;53.332;6.514;2023-11-21T11:58:56;101955.81;;;15.15;69.46
82951;BME280;72737;53.332;6.514;2023-11-21T12:01:24;101953.38;;;15.14;69.33
82951;BME280;72737;53.332;6.514;2023-11-21T12:06:42;101967.84;;;15.14;69.51
82951;BME280;72737;53.332;6.514;2023-11-21T12:09:17;101974.47;;;15.18;69.64
82951;BME280;72737;53.332;6.514;2023-11-21T12:11:43;101968.41;;;15.16;69.05
82951;BME280;72737;53.332;6.514;2023-11-21T12:14:09;101978.81;;;15.14;69.80
82951;BME280;72737;53.332;6.514;2023-11-21T12:16:35;101981.84;;;15.18;69.05
82951;BME280;72737;53.332;6.514;2023-11-21T12:19:00;101989.75;;;15.14;69.72
82951;BME280;72737;53.332;6.514;2023-11-21T12:21:26;101988.16;;;15.18;69.67
82951;BME280;72737;53.332;6.514;2023-11-21T12:23:51;101989.78;;;15.19;69.37
82951;BME280;72737;53.332;6.514;2023-11-21T12:26:18;101984.03;;;15.16;69.74
82951;BME280;72737;53.332;6.514;2023-11-21T12:28:52;101987.31;;;15.18;69.18
82951;BME280;72737;53.332;6.514;2023-11-21T12:31:19;101984.28;;;15.19;69.38
82951;BME280;72737;53.332;6.514;2023-11-21T12:33:45;101988.69;;;15.15;69.87
82951;BME280;72737;53.332;6.514;2023-11-21T12:36:11;101992.50;;;15.14;69.45
82951;BME280;72737;53.332;6.514;2023-11-21T12:38:37;101995.81;;;15.16;69.19
82951;BME280;72737;53.332;6.514;2023-11-21T12:41:02;101995.81;;;15.16;69.46
82951;BME280;72737;53.332;6.514;2023-11-21T12:43:29;101997.19;;;15.14;69.73
82951;BME280;72737;53.332;6.514;2023-11-21T12:46:08;102004.56;;;15.13;69.39
82951;BME280;72737;53.332;6.514;2023-11-21T12:48:39;102007.56;;;15.12;69.43
82951;BME280;72737;53.332;6.514;2023-11-21T12:51:06;102009.75;;;15.15;69.26
82951;BME280;72737;53.332;6.514;2023-11-21T12:53:32;102007.31;;;15.13;69.34
82951;BME280;72737;53.332;6.514;2023-11-21T12:56:02;102008.66;;;15.11;69.36
82951;BME280;72737;53.332;6.514;2023-11-21T12:58:28;102016.63;;;15.12;69.75
82951;BME280;72737;53.332;6.514;2023-11-21T13:00:57;102019.88;;;15.14;69.16